Time;durP1;ratioP1;P1;durP2;ratioP2;P2;SDS_P1;SDS_P2;PMS_P1;PMS_P2;Temp;Humidity;BMP_temperature;BMP_pressure;BME280_temperature;BME280_humidity;BME280_pressure;Samples;Min_cycle;Max_cycle;Signal;HPM_P1;HPM_P2
2022/09/17 00:00:57;;;;;;;0.00;0.00;;;13.70;99.90;;;;;;4947967;29;20091;-88
2022/09/17 00:03:24;;;;;;;0.00;0.00;;;13.70;99.90;;;;;;4947958;29;20082;-88
2022/09/17 00:06:02;;;;;;;0.00;0.00;;;13.70;99.90;;;;;;4932240;29;20042;-88
2022/09/17 00:08:28;;;;;;;1.05;1.00;;;13.70;99.90;;;;;;4947938;29;20477;-89
2022/09/17 00:10:54;;;;;;;0.00;0.00;;;13.70;99.90;;;;;;4929005;29;20024;-88
2022/09/17 00:13:20;;;;;;;0.00;0.00;;;13.70;99.90;;;;;;4928783;29;20044;-89
2022/09/17 00:15:47;;;;;;;0.00;0.00;;;13.70;99.90;;;;;;4912819;29;20028;-89
2022/09/17 00:18:16;;;;;;;0.00;0.00;;;13.70;99.90;;;;;;4928689;29;20028;-88
2022/09/17 00:20:45;;;;;;;0.00;0.00;;;13.70;99.90;;;;;;4912808;29;20063;-89
2022/09/17 00:23:12;;;;;;;0.00;0.00;;;13.70;99.90;;;;;;4928415;29;20036;-89
2022/09/17 00:25:40;;;;;;;0.00;0.00;;;13.70;99.90;;;;;;4912761;29;20028;-88
2022/09/17 00:28:06;;;;;;;0.00;0.00;;;13.70;99.90;;;;;;4928500;29;20044;-89
2022/09/17 00:30:32;;;;;;;0.00;0.00;;;13.70;99.90;;;;;;4928515;29;20031;-88
2022/09/17 00:32:58;;;;;;;0.35;0.35;;;13.70;99.90;;;;;;4912703;29;20020;-88
2022/09/17 00:35:25;;;;;;;0.00;0.00;;;13.70;99.90;;;;;;4912492;29;20047;-90
2022/09/17 00:37:51;;;;;;;0.60;0.60;;;13.70;99.90;;;;;;4912973;29;20067;-88
2022/09/17 00:40:17;;;;;;;0.32;0.32;;;13.60;99.90;;;;;;4913994;29;20028;-88
2022/09/17 00:42:44;;;;;;;0.00;0.00;;;13.60;99.90;;;;;;4931657;29;20042;-89
2022/09/17 00:45:11;;;;;;;0.00;0.00;;;13.60;99.90;;;;;;4931571;29;20040;-89
2022/09/17 00:47:47;;;;;;;0.20;0.20;;;13.70;99.90;;;;;;4931446;29;20024;-89
2022/09/17 00:50:17;;;;;;;0.30;0.30;;;13.60;99.90;;;;;;4931412;29;20028;-88
2022/09/17 00:52:52;;;;;;;1.08;1.08;;;13.60;99.90;;;;;;4947498;29;20038;-89
2022/09/17 00:55:29;;;;;;;0.00;0.00;;;13.60;99.90;;;;;;4931365;29;20024;-89
2022/09/17 00:58:00;;;;;;;0.00;0.00;;;13.60;99.90;;;;;;4947539;29;20038;-87
2022/09/17 01:00:27;;;;;;;0.00;0.00;;;13.60;99.90;;;;;;4947325;29;20032;-88
2022/09/17 01:02:54;;;;;;;0.00;0.00;;;13.60;99.90;;;;;;4931377;29;20429;-87
2022/09/17 01:05:49;;;;;;;0.00;0.00;;;13.60;99.90;;;;;;4931460;29;20032;-89
2022/09/17 01:08:31;;;;;;;0.00;0.00;;;13.60;99.90;;;;;;4947224;29;20023;-89
2022/09/17 01:10:57;;;;;;;0.00;0.00;;;13.60;99.90;;;;;;4946720;29;20027;-89
2022/09/17 01:13:51;;;;;;;0.00;0.00;;;13.60;99.90;;;;;;4932065;29;20024;-89
2022/09/17 01:16:28;;;;;;;0.00;0.00;;;13.60;99.90;;;;;;4912490;29;20051;-88
2022/09/17 01:19:11;;;;;;;0.20;0.20;;;13.60;99.90;;;;;;4912363;29;20032;-89
2022/09/17 01:21:47;;;;;;;0.00;0.00;;;13.60;99.90;;;;;;4927850;29;20032;-89
2022/09/17 01:24:43;;;;;;;0.00;0.00;;;13.60;99.90;;;;;;4928087;29;20052;-89
2022/09/17 01:27:38;;;;;;;0.00;0.00;;;13.50;99.90;;;;;;4920230;29;20042;-88
2022/09/17 01:30:55;;;;;;;0.00;0.00;;;13.60;99.90;;;;;;4934849;29;20028;-89
2022/09/17 01:33:39;;;;;;;0.00;0.00;;;13.60;99.90;;;;;;4911128;29;20118;-88
2022/09/17 01:36:23;;;;;;;0.98;0.98;;;13.50;99.90;;;;;;4934502;29;20075;-89
2022/09/17 01:39:12;;;;;;;0.10;0.10;;;13.60;99.90;;;;;;4950596;29;20031;-89
2022/09/17 01:41:44;;;;;;;0.00;0.00;;;13.50;99.90;;;;;;4915714;29;20060;-89
2022/09/17 01:44:50;;;;;;;0.00;0.00;;;13.50;99.90;;;;;;4927642;29;20036;-89
2022/09/17 01:47:19;;;;;;;0.00;0.00;;;13.60;99.90;;;;;;4903624;29;20040;-89
2022/09/17 01:49:47;;;;;;;0.00;0.00;;;13.50;99.90;;;;;;4934335;29;20035;-89
2022/09/17 01:52:14;;;;;;;0.00;0.00;;;13.60;99.90;;;;;;4934671;29;20024;-89
2022/09/17 01:54:48;;;;;;;0.00;0.00;;;13.60;99.90;;;;;;4916633;29;20052;-89
2022/09/17 01:57:35;;;;;;;0.00;0.00;;;13.50;99.90;;;;;;4931091;29;20028;-88
2022/09/17 02:00:06;;;;;;;0.00;0.00;;;13.50;99.90;;;;;;4931117;29;20059;-89
2022/09/17 02:02:57;;;;;;;0.00;0.00;;;13.50;99.90;;;;;;4931014;29;20025;-89
2022/09/17 02:05:27;;;;;;;0.00;0.00;;;13.50;99.90;;;;;;4915327;29;20032;-90
2022/09/17 02:08:18;;;;;;;0.00;0.00;;;13.50;99.90;;;;;;4935445;29;20023;-88
2022/09/17 02:10:59;;;;;;;0.00;0.00;;;13.50;99.90;;;;;;4930845;29;20060;-88
2022/09/17 02:13:37;;;;;;;0.40;0.40;;;13.50;99.90;;;;;;4930848;29;20125;-89
2022/09/17 02:16:25;;;;;;;0.00;0.00;;;13.50;99.90;;;;;;4931030;29;20466;-88
2022/09/17 02:19:09;;;;;;;0.00;0.00;;;13.50;99.90;;;;;;4930862;29;20508;-88
2022/09/17 02:21:56;;;;;;;0.00;0.00;;;13.50;99.90;;;;;;4915033;29;20037;-89
2022/09/17 02:24:31;;;;;;;0.00;0.00;;;13.50;99.90;;;;;;4933370;29;20095;-88
2022/09/17 02:27:03;;;;;;;0.00;0.00;;;13.50;99.90;;;;;;4949811;29;20083;-88
2022/09/17 02:29:34;;;;;;;0.00;0.00;;;13.50;99.90;;;;;;4933890;29;20058;-89
2022/09/17 02:32:00;;;;;;;0.00;0.00;;;13.50;99.90;;;;;;4933708;29;20032;-89
2022/09/17 02:34:28;;;;;;;0.00;0.00;;;13.50;99.90;;;;;;4933614;29;20051;-89
2022/09/17 02:36:55;;;;;;;0.00;0.00;;;13.50;99.90;;;;;;4949072;29;20063;-89
2022/09/17 02:39:20;;;;;;;0.00;0.00;;;13.50;99.90;;;;;;4917877;29;20044;-88
2022/09/17 02:42:19;;;;;;;0.00;0.00;;;13.50;99.90;;;;;;4933842;29;20030;-89
2022/09/17 02:45:04;;;;;;;0.00;0.00;;;13.50;99.90;;;;;;4933530;29;20036;-88
2022/09/17 02:47:37;;;;;;;0.00;0.00;;;13.50;99.90;;;;;;4933303;29;20039;-89
2022/09/17 02:50:17;;;;;;;0.00;0.00;;;13.50;99.90;;;;;;4933517;29;20028;-89
2022/09/17 02:52:50;;;;;;;0.00;0.00;;;13.50;99.90;;;;;;4933380;29;20472;-89
2022/09/17 02:55:30;;;;;;;0.05;0.05;;;13.50;99.90;;;;;;4949312;29;20032;-89
2022/09/17 02:58:20;;;;;;;0.00;0.00;;;13.40;99.90;;;;;;4948966;29;20046;-89
2022/09/17 03:00:47;;;;;;;0.00;0.00;;;13.40;99.90;;;;;;4949283;29;20032;-89
2022/09/17 03:03:19;;;;;;;0.00;0.00;;;13.40;99.90;;;;;;4949214;29;20028;-89
2022/09/17 03:05:46;;;;;;;0.00;0.00;;;13.40;99.90;;;;;;4948980;29;20063;-89
2022/09/17 03:08:13;;;;;;;0.00;0.00;;;13.40;99.90;;;;;;4921509;29;20043;-89
2022/09/17 03:10:40;;;;;;;0.00;0.00;;;13.40;99.90;;;;;;4930104;29;20032;-89
2022/09/17 03:13:08;;;;;;;0.00;0.00;;;13.40;99.90;;;;;;4913983;29;20117;-89
2022/09/17 03:15:34;;;;;;;0.00;0.00;;;13.40;99.90;;;;;;4929737;29;20024;-89
2022/09/17 03:18:00;;;;;;;0.00;0.00;;;13.40;99.90;;;;;;4929741;29;20505;-89
2022/09/17 03:20:26;;;;;;;0.77;0.77;;;13.40;99.90;;;;;;4929649;29;20039;-89
2022/09/17 03:22:52;;;;;;;0.20;0.20;;;13.40;99.90;;;;;;4939719;29;20122;-89
2022/09/17 03:25:18;;;;;;;0.00;0.00;;;13.40;99.90;;;;;;4932555;29;20027;-89
2022/09/17 03:27:44;;;;;;;0.00;0.00;;;13.40;99.90;;;;;;4932586;29;20024;-89
2022/09/17 03:30:10;;;;;;;0.00;0.00;;;13.40;99.90;;;;;;4932702;29;20037;-89
2022/09/17 03:32:36;;;;;;;0.00;0.00;;;13.30;99.90;;;;;;4948535;29;20374;-89
2022/09/17 03:35:02;;;;;;;0.00;0.00;;;13.30;99.90;;;;;;4916688;29;20055;-88
2022/09/17 03:37:28;;;;;;;0.00;0.00;;;13.30;99.90;;;;;;4932496;29;20039;-88
2022/09/17 03:39:53;;;;;;;0.00;0.00;;;13.30;99.90;;;;;;4935764;29;20032;-89
2022/09/17 03:42:19;;;;;;;0.00;0.00;;;13.30;99.90;;;;;;4913452;29;20129;-89
2022/09/17 03:44:45;;;;;;;0.00;0.00;;;13.30;99.90;;;;;;4913679;29;20031;-89
2022/09/17 03:47:11;;;;;;;0.00;0.00;;;13.30;99.90;;;;;;4929033;29;20526;-89
2022/09/17 03:49:37;;;;;;;0.00;0.00;;;13.30;99.90;;;;;;4912771;29;20021;-89
2022/09/17 03:52:03;;;;;;;0.00;0.00;;;13.30;99.90;;;;;;4914308;29;20032;-89
2022/09/17 03:54:29;;;;;;;0.00;0.00;;;13.30;99.90;;;;;;4920126;29;20036;-89
2022/09/17 03:56:54;;;;;;;0.00;0.00;;;13.30;99.90;;;;;;4932351;29;20031;-88
2022/09/17 03:59:20;;;;;;;0.30;0.30;;;13.30;99.90;;;;;;4916424;29;20044;-88
2022/09/17 04:01:46;;;;;;;0.00;0.00;;;13.30;99.90;;;;;;4931946;29;20047;-89
2022/09/17 04:04:12;;;;;;;0.00;0.00;;;13.20;99.90;;;;;;4948230;29;20032;-89
2022/09/17 04:06:38;;;;;;;0.00;0.00;;;13.20;99.90;;;;;;4931966;29;20032;-89
2022/09/17 04:09:04;;;;;;;0.00;0.00;;;13.20;99.90;;;;;;4931833;29;20028;-89
2022/09/17 04:11:30;;;;;;;0.00;0.00;;;13.20;99.90;;;;;;4916454;29;20043;-90
2022/09/17 04:13:56;;;;;;;0.63;0.63;;;13.20;99.90;;;;;;4948970;29;20062;-91
2022/09/17 04:16:21;;;;;;;0.00;0.00;;;13.20;99.90;;;;;;4947885;29;20039;-89
2022/09/17 04:18:47;;;;;;;0.00;0.00;;;13.20;99.90;;;;;;4932001;29;20028;-89
2022/09/17 04:21:13;;;;;;;0.00;0.00;;;13.20;99.90;;;;;;4931794;29;20040;-89
2022/09/17 04:23:39;;;;;;;0.00;0.00;;;13.20;99.90;;;;;;4947021;29;20039;-88
2022/09/17 04:26:05;;;;;;;0.00;0.00;;;13.20;99.90;;;;;;4931936;29;20031;-89
2022/09/17 04:28:31;;;;;;;0.77;0.73;;;13.20;99.90;;;;;;4915976;29;20100;-89
2022/09/17 04:30:57;;;;;;;1.02;1.02;;;13.20;99.90;;;;;;4931782;29;20508;-89
2022/09/17 04:33:22;;;;;;;0.00;0.00;;;13.20;99.90;;;;;;4931732;29;20027;-88
2022/09/17 04:35:48;;;;;;;0.00;0.00;;;13.20;99.90;;;;;;4947399;29;20046;-89
2022/09/17 04:38:17;;;;;;;0.00;0.00;;;13.20;99.90;;;;;;4931599;29;20028;-89
2022/09/17 04:40:45;;;;;;;0.00;0.00;;;13.10;99.90;;;;;;4947602;29;20034;-89
2022/09/17 04:43:11;;;;;;;0.00;0.00;;;13.10;99.90;;;;;;4947365;29;20039;-88
2022/09/17 04:45:37;;;;;;;0.00;0.00;;;13.20;99.90;;;;;;4915724;29;20039;-88
2022/09/17 04:48:03;;;;;;;0.57;0.57;;;13.10;99.90;;;;;;4931600;29;20378;-88
2022/09/17 04:50:29;;;;;;;0.00;0.00;;;13.10;99.90;;;;;;4947610;29;20480;-89
2022/09/17 04:52:56;;;;;;;0.00;0.00;;;13.40;99.90;;;;;;4946633;29;20090;-88
2022/09/17 04:55:22;;;;;;;0.00;0.00;;;13.10;99.90;;;;;;4931695;29;20030;-90
2022/09/17 04:57:50;;;;;;;0.00;0.00;;;13.10;99.90;;;;;;4931424;29;20032;-89
2022/09/17 05:00:18;;;;;;;0.00;0.00;;;13.10;99.90;;;;;;4948150;29;20079;-90
2022/09/17 05:02:48;;;;;;;0.00;0.00;;;13.10;99.90;;;;;;4928111;29;20052;-89
2022/09/17 05:05:16;;;;;;;0.00;0.00;;;13.10;99.90;;;;;;4903132;29;20044;-88
2022/09/17 05:07:42;;;;;;;0.00;0.00;;;13.10;99.90;;;;;;4950207;29;20039;-89
2022/09/17 05:10:09;;;;;;;0.00;0.00;;;13.00;99.90;;;;;;4929255;29;20031;-88
2022/09/17 05:12:35;;;;;;;0.00;0.00;;;13.00;99.90;;;;;;4926569;29;20110;-89
2022/09/17 05:15:01;;;;;;;0.00;0.00;;;13.00;99.90;;;;;;4942963;29;20036;-89
2022/09/17 05:17:27;;;;;;;0.00;0.00;;;13.00;99.90;;;;;;4922775;29;20114;-89
2022/09/17 05:19:53;;;;;;;0.00;0.00;;;13.00;99.90;;;;;;4934935;29;20389;-88
2022/09/17 05:22:19;;;;;;;0.00;0.00;;;13.00;99.90;;;;;;4931351;29;20056;-89
2022/09/17 05:24:46;;;;;;;0.00;0.00;;;13.00;99.90;;;;;;4919010;29;20091;-89
2022/09/17 05:27:12;;;;;;;0.10;0.10;;;13.00;99.90;;;;;;4934663;29;20095;-90
2022/09/17 05:29:38;;;;;;;0.00;0.00;;;13.00;99.90;;;;;;4927797;29;20072;-89
2022/09/17 05:32:05;;;;;;;0.00;0.00;;;13.00;99.90;;;;;;4931809;29;20025;-89
2022/09/17 05:34:30;;;;;;;0.00;0.00;;;13.00;99.90;;;;;;4916477;29;20060;-88
2022/09/17 05:36:56;;;;;;;0.00;0.00;;;13.00;99.90;;;;;;4934278;29;20063;-88
2022/09/17 05:39:24;;;;;;;0.00;0.00;;;13.00;99.90;;;;;;4929004;29;20071;-90
2022/09/17 05:41:54;;;;;;;0.20;0.20;;;13.00;99.90;;;;;;4941673;29;20056;-88
2022/09/17 05:44:21;;;;;;;0.98;0.98;;;13.10;99.90;;;;;;4930944;29;20056;-89
2022/09/17 05:46:47;;;;;;;0.00;0.00;;;13.10;99.90;;;;;;4934467;29;20024;-89
2022/09/17 05:49:14;;;;;;;1.33;1.27;;;13.00;99.90;;;;;;4927413;29;20054;-89
2022/09/17 05:51:40;;;;;;;0.00;0.00;;;13.00;99.90;;;;;;4920062;29;20051;-89
2022/09/17 05:54:07;;;;;;;0.00;0.00;;;13.00;99.90;;;;;;4934388;29;20020;-87
2022/09/17 05:56:33;;;;;;;0.00;0.00;;;;;;;;;;4933782;29;20028;-89
2022/09/17 05:58:59;;;;;;;0.00;0.00;;;13.00;99.90;;;;;;4944086;29;20036;-88
2022/09/17 06:01:25;;;;;;;0.00;0.00;;;13.10;99.90;;;;;;4930712;29;20485;-87
2022/09/17 06:03:52;;;;;;;0.00;0.00;;;13.10;99.90;;;;;;4940912;29;20055;-87
2022/09/17 06:06:18;;;;;;;0.00;0.00;;;13.10;99.90;;;;;;4935748;29;20103;-87
2022/09/17 06:08:44;;;;;;;0.00;0.00;;;13.10;99.90;;;;;;4931967;29;20028;-87
2022/09/17 06:11:10;;;;;;;0.00;0.00;;;;;;;;;;4916664;29;20044;-87
2022/09/17 06:13:36;;;;;;;0.00;0.00;;;13.10;99.90;;;;;;4932220;29;20032;-87
2022/09/17 06:16:02;;;;;;;0.20;0.20;;;13.10;99.90;;;;;;4946984;29;20034;-87
2022/09/17 06:18:29;;;;;;;0.00;0.00;;;13.10;99.90;;;;;;4936841;29;20028;-86
2022/09/17 06:20:57;;;;;;;1.15;1.15;;;13.10;99.90;;;;;;4932092;29;20414;-87
2022/09/17 06:23:27;;;;;;;0.00;0.00;;;13.10;99.90;;;;;;4916204;29;20107;-87
2022/09/17 06:25:57;;;;;;;;;;;13.10;99.90;;;;;;4926010;29;20043;-88
2022/09/17 06:28:23;;;;;;;0.00;0.00;;;;;;;;;;4931527;29;19919;-87
2022/09/17 06:30:53;;;;;;;0.00;0.00;;;;;;;;;;4933806;29;20030;-88
2022/09/17 06:33:19;;;;;;;0.00;0.00;;;;;;;;;;4947356;29;20036;-87
2022/09/17 06:35:45;;;;;;;0.00;0.00;;;13.20;99.90;;;;;;4931390;29;20083;-88
2022/09/17 06:38:11;;;;;;;0.00;0.00;;;13.20;99.90;;;;;;4934751;29;20040;-87
2022/09/17 06:40:40;;;;;;;0.00;0.00;;;13.20;99.90;;;;;;4934473;29;20027;-88
2022/09/17 06:43:06;;;;;;;0.10;0.10;;;;;;;;;;4940760;29;20031;-88
2022/09/17 06:45:32;;;;;;;0.00;0.00;;;;;;;;;;4935349;29;20026;-88
2022/09/17 06:48:03;;;;;;;1.85;1.75;;;13.20;99.90;;;;;;4933603;29;20103;-88
2022/09/17 06:50:30;;;;;;;0.50;0.50;;;13.20;99.90;;;;;;4919406;29;20024;-88
2022/09/17 06:52:55;;;;;;;0.00;0.00;;;13.10;99.90;;;;;;4923706;29;20035;-87
2022/09/17 06:55:21;;;;;;;0.00;0.00;;;13.10;99.90;;;;;;4934276;29;20027;-88
2022/09/17 06:57:47;;;;;;;0.05;0.05;;;13.10;99.90;;;;;;4950028;29;20110;-88
2022/09/17 07:00:14;;;;;;;0.00;0.00;;;13.00;99.90;;;;;;4934127;29;20091;-88
2022/09/17 07:02:40;;;;;;;0.93;0.93;;;13.00;99.90;;;;;;4950830;29;20020;-88
2022/09/17 07:05:07;;;;;;;0.00;0.00;;;13.10;99.90;;;;;;4948159;29;20051;-88
2022/09/17 07:07:34;;;;;;;0.00;0.00;;;13.00;99.90;;;;;;4949179;29;20042;-88
2022/09/17 07:10:01;;;;;;;1.75;1.75;;;13.00;99.90;;;;;;4940853;29;20099;-88
2022/09/17 07:12:26;;;;;;;0.00;0.00;;;13.00;99.90;;;;;;4915240;29;20039;-88
2022/09/17 07:14:52;;;;;;;1.95;1.85;;;13.10;99.90;;;;;;4949192;29;20118;-88
2022/09/17 07:17:18;;;;;;;0.00;0.00;;;13.10;99.90;;;;;;4942251;29;20032;-88
2022/09/17 07:19:43;;;;;;;0.00;0.00;;;13.10;99.90;;;;;;4939728;29;20028;-88
2022/09/17 07:22:09;;;;;;;0.00;0.00;;;13.10;99.90;;;;;;4930240;29;20028;-88
2022/09/17 07:24:35;;;;;;;0.00;0.00;;;13.10;99.90;;;;;;4921840;29;20477;-88
2022/09/17 07:27:01;;;;;;;0.00;0.00;;;13.10;99.90;;;;;;4929162;29;20036;-89
2022/09/17 07:29:27;;;;;;;0.00;0.00;;;13.10;99.90;;;;;;4915337;29;20067;-89
2022/09/17 07:31:53;;;;;;;0.00;0.00;;;13.10;99.90;;;;;;4931433;29;20028;-89
2022/09/17 07:34:19;;;;;;;0.00;0.00;;;13.20;99.90;;;;;;4913989;29;20042;-88
2022/09/17 07:36:45;;;;;;;1.75;1.45;;;13.20;99.90;;;;;;4944589;29;20126;-88
2022/09/17 07:39:12;;;;;;;0.52;0.43;;;13.20;99.90;;;;;;4916816;29;20068;-86
2022/09/17 07:41:38;;;;;;;0.00;0.00;;;13.20;99.90;;;;;;4917079;29;20059;-88
2022/09/17 07:44:06;;;;;;;0.43;0.43;;;13.30;99.90;;;;;;4945182;29;20070;-88
2022/09/17 07:46:32;;;;;;;0.00;0.00;;;13.30;99.90;;;;;;4948241;28;20023;-88
2022/09/17 07:48:58;;;;;;;0.00;0.00;;;13.30;99.90;;;;;;4947224;29;20151;-88
2022/09/17 07:51:27;;;;;;;0.00;0.00;;;13.30;99.90;;;;;;4948240;29;20572;-88
2022/09/17 07:53:55;;;;;;;0.00;0.00;;;13.30;99.90;;;;;;4924317;29;20039;-88
2022/09/17 07:56:21;;;;;;;0.00;0.00;;;13.30;99.90;;;;;;4928917;29;20040;-88
2022/09/17 07:58:47;;;;;;;0.00;0.00;;;13.40;99.90;;;;;;4929221;29;20039;-88
2022/09/17 08:01:17;;;;;;;0.00;0.00;;;13.40;99.90;;;;;;4940885;29;20032;-88
2022/09/17 08:03:48;;;;;;;1.00;1.00;;;13.40;99.90;;;;;;4931978;29;20032;-88
2022/09/17 08:06:16;;;;;;;0.15;0.15;;;13.40;99.90;;;;;;4940769;29;20036;-88
2022/09/17 08:08:42;;;;;;;0.00;0.00;;;13.40;99.90;;;;;;4929152;29;20552;-86
2022/09/17 08:11:20;;;;;;;0.00;0.00;;;13.40;99.90;;;;;;4943323;29;20113;-88
2022/09/17 08:13:47;;;;;;;0.00;0.00;;;13.50;99.90;;;;;;4947153;29;20028;-89
2022/09/17 08:16:14;;;;;;;0.00;0.00;;;13.50;99.90;;;;;;4939999;29;20024;-88
2022/09/17 08:18:41;;;;;;;0.00;0.00;;;13.50;99.90;;;;;;4928966;29;20092;-88
2022/09/17 08:21:10;;;;;;;0.00;0.00;;;13.50;99.90;;;;;;4935919;29;20043;-88
2022/09/17 08:23:38;;;;;;;0.00;0.00;;;13.50;99.90;;;;;;4931345;29;20485;-88
2022/09/17 08:26:07;;;;;;;0.00;0.00;;;13.50;99.90;;;;;;4947488;29;20036;-88
2022/09/17 08:28:34;;;;;;;3.97;3.78;;;13.40;99.90;;;;;;4947741;29;20059;-87
2022/09/17 08:31:02;;;;;;;0.00;0.00;;;13.50;99.90;;;;;;4932687;29;20024;-87
2022/09/17 08:33:32;;;;;;;0.00;0.00;;;13.50;99.90;;;;;;4940209;29;20599;-88
2022/09/17 08:35:58;;;;;;;0.52;0.52;;;13.50;99.90;;;;;;4928020;29;20061;-88
2022/09/17 08:38:30;;;;;;;0.10;0.10;;;13.50;99.90;;;;;;4928534;29;20063;-88
2022/09/17 08:41:17;;;;;;;0.00;0.00;;;13.50;99.90;;;;;;4923058;29;20043;-89
2022/09/17 08:44:02;;;;;;;0.00;0.00;;;13.60;99.90;;;;;;4939532;29;20092;-87
2022/09/17 08:46:32;;;;;;;0.00;0.00;;;13.60;99.90;;;;;;4958127;29;20042;-88
2022/09/17 08:49:13;;;;;;;0.00;0.00;;;13.60;99.90;;;;;;4929425;29;20406;-88
2022/09/17 08:52:00;;;;;;;0.00;0.00;;;13.60;99.90;;;;;;4931309;29;20043;-87
2022/09/17 08:54:30;;;;;;;0.52;0.52;;;13.60;99.90;;;;;;4946129;29;20032;-88
2022/09/17 08:57:27;;;;;;;1.35;1.35;;;13.70;99.90;;;;;;4944144;29;20031;-88
2022/09/17 09:00:01;;;;;;;3.15;2.95;;;13.80;99.90;;;;;;4939542;29;20043;-87
2022/09/17 09:02:54;;;;;;;2.13;2.03;;;13.90;99.90;;;;;;4946117;29;20043;-88
2022/09/17 09:05:55;;;;;;;1.65;1.65;;;14.00;99.90;;;;;;4935520;29;20103;-87
2022/09/17 09:08:34;;;;;;;0.00;0.00;;;14.10;99.90;;;;;;4948508;29;20049;-87
2022/09/17 09:11:13;;;;;;;0.00;0.00;;;14.10;99.90;;;;;;4920151;29;20039;-87
2022/09/17 09:13:47;;;;;;;1.10;1.10;;;14.20;99.90;;;;;;4914032;29;20087;-88
2022/09/17 09:16:32;;;;;;;0.00;0.00;;;14.20;99.90;;;;;;4919390;29;20030;-88
2022/09/17 09:19:29;;;;;;;0.35;0.35;;;14.20;99.90;;;;;;4934483;29;20095;-88
2022/09/17 09:22:22;;;;;;;0.00;0.00;;;14.30;99.90;;;;;;4915385;29;20035;-89
2022/09/17 09:25:16;;;;;;;1.55;1.45;;;14.50;99.90;;;;;;4930657;29;20036;-86
2022/09/17 09:28:32;;;;;;;0.00;0.00;;;14.60;99.90;;;;;;4947467;29;20032;-87
2022/09/17 09:31:20;;;;;;;0.00;0.00;;;14.60;99.90;;;;;;4895662;29;20504;-88
2022/09/17 09:33:47;;;;;;;0.10;0.10;;;14.80;99.90;;;;;;4927381;29;20064;-87
2022/09/17 09:36:20;;;;;;;0.00;0.00;;;14.80;99.90;;;;;;4924322;29;20048;-87
2022/09/17 09:39:00;;;;;;;0.00;0.00;;;14.80;99.90;;;;;;4963154;29;20032;-88
2022/09/17 09:41:30;;;;;;;;;;;14.90;99.90;;;;;;4937455;29;20040;-87
2022/09/17 09:44:08;;;;;;;0.00;0.00;;;14.90;99.90;;;;;;4958039;29;19911;-88
2022/09/17 09:47:08;;;;;;;0.05;0.05;;;15.00;99.90;;;;;;4945942;29;20524;-88
2022/09/17 09:50:13;;;;;;;0.00;0.00;;;15.00;99.90;;;;;;4950406;29;20043;-87
2022/09/17 09:53:13;;;;;;;0.00;0.00;;;15.00;99.90;;;;;;4942397;29;20047;-87
2022/09/17 09:56:06;;;;;;;0.00;0.00;;;15.00;99.90;;;;;;4946388;29;20047;-87
2022/09/17 09:58:37;;;;;;;5.20;1.52;;;14.90;99.90;;;;;;4935183;29;20084;-89
2022/09/17 10:01:15;;;;;;;1.65;1.55;;;14.90;99.90;;;;;;4915566;29;20076;-87
2022/09/17 10:03:44;;;;;;;0.00;0.00;;;15.00;99.90;;;;;;4946599;29;20056;-87
2022/09/17 10:06:12;;;;;;;0.00;0.00;;;15.10;99.90;;;;;;4941603;29;20031;-87
2022/09/17 10:08:59;;;;;;;0.00;0.00;;;15.00;99.90;;;;;;4933875;29;20024;-88
2022/09/17 10:11:27;;;;;;;0.00;0.00;;;15.10;99.90;;;;;;4933476;29;20040;-88
2022/09/17 10:14:12;;;;;;;0.00;0.00;;;15.20;99.90;;;;;;4915233;29;20460;-87
2022/09/17 10:16:38;;;;;;;0.00;0.00;;;15.10;99.90;;;;;;4931097;29;20032;-88
2022/09/17 10:19:07;;;;;;;0.00;0.00;;;15.00;99.90;;;;;;4942149;29;20034;-88
2022/09/17 10:21:35;;;;;;;0.00;0.00;;;15.00;99.90;;;;;;4949761;29;20086;-88
2022/09/17 10:24:04;;;;;;;0.75;0.75;;;14.90;99.90;;;;;;4934385;29;20040;-88
2022/09/17 10:26:34;;;;;;;0.00;0.00;;;15.00;99.90;;;;;;4950005;29;20039;-89
2022/09/17 10:29:10;;;;;;;0.00;0.00;;;15.00;99.90;;;;;;4948546;29;20064;-88
2022/09/17 10:31:50;;;;;;;0.00;0.00;;;14.90;99.90;;;;;;4930728;29;20418;-88
2022/09/17 10:34:23;;;;;;;;;;;14.90;99.90;;;;;;4932357;29;20024;-88
2022/09/17 10:36:49;;;;;;;0.00;0.00;;;14.80;99.90;;;;;;4930369;29;19919;-88
2022/09/17 10:39:33;;;;;;;0.00;0.00;;;14.70;99.90;;;;;;4930609;29;20253;-88
2022/09/17 10:42:14;;;;;;;0.75;0.75;;;14.60;99.90;;;;;;4930682;29;20083;-87
2022/09/17 10:44:59;;;;;;;0.00;0.00;;;14.60;99.90;;;;;;4930662;29;20095;-88
2022/09/17 10:47:52;;;;;;;0.77;0.77;;;14.50;99.90;;;;;;4915582;29;20125;-88
2022/09/17 10:50:29;;;;;;;0.25;0.25;;;14.40;99.90;;;;;;4929738;29;20036;-89
2022/09/17 10:52:59;;;;;;;0.00;0.00;;;14.40;99.90;;;;;;4931283;29;20092;-88
2022/09/17 10:55:49;;;;;;;0.00;0.00;;;14.30;99.90;;;;;;4930951;29;20040;-89
2022/09/17 10:58:34;;;;;;;0.30;0.30;;;14.30;99.90;;;;;;4915047;29;20099;-88
2022/09/17 11:01:24;;;;;;;0.00;0.00;;;14.30;99.90;;;;;;4936343;29;20437;-88
2022/09/17 11:04:12;;;;;;;0.00;0.00;;;14.40;99.90;;;;;;4941981;29;20095;-88
2022/09/17 11:07:16;;;;;;;0.20;0.20;;;14.50;99.90;;;;;;4936309;29;20028;-88
2022/09/17 11:10:06;;;;;;;0.00;0.00;;;14.60;99.90;;;;;;4948661;29;20035;-88
2022/09/17 11:12:34;;;;;;;0.00;0.00;;;14.70;99.90;;;;;;4943391;29;20039;-87
2022/09/17 11:15:09;;;;;;;0.00;0.00;;;14.80;99.90;;;;;;4941592;29;20028;-89
2022/09/17 11:18:11;;;;;;;0.00;0.00;;;14.90;99.90;;;;;;4946297;29;20055;-88
2022/09/17 11:20:55;;;;;;;0.00;0.00;;;14.80;99.90;;;;;;4925473;29;20044;-88
2022/09/17 11:23:39;;;;;;;0.00;0.00;;;14.70;99.90;;;;;;4933357;29;20197;-88
2022/09/17 11:26:21;;;;;;;0.00;0.00;;;14.60;99.90;;;;;;4947682;29;20095;-88
2022/09/17 11:28:58;;;;;;;0.00;0.00;;;14.60;99.90;;;;;;4933439;29;20036;-89
2022/09/17 11:31:36;;;;;;;1.20;1.10;;;14.50;99.90;;;;;;4952518;29;20059;-88
2022/09/17 11:34:34;;;;;;;0.00;0.00;;;14.50;99.90;;;;;;4945328;29;20020;-88
2022/09/17 11:37:19;;;;;;;0.00;0.00;;;14.40;99.90;;;;;;4941881;29;20452;-88
2022/09/17 11:39:48;;;;;;;0.00;0.00;;;14.40;99.90;;;;;;4948834;29;20036;-91
2022/09/17 11:42:22;;;;;;;0.00;0.00;;;14.30;99.90;;;;;;4948583;29;20040;-91
2022/09/17 11:44:57;;;;;;;0.00;0.00;;;14.30;99.90;;;;;;4932623;29;20036;-91
2022/09/17 11:47:50;;;;;;;0.00;0.00;;;14.30;99.90;;;;;;4932677;29;20055;-91
2022/09/17 11:50:35;;;;;;;0.00;0.00;;;14.20;99.90;;;;;;4924859;29;20063;-91
2022/09/17 11:53:36;;;;;;;0.00;0.00;;;14.20;99.90;;;;;;4930098;29;20453;-88
2022/09/17 11:56:28;;;;;;;0.00;0.00;;;14.20;99.90;;;;;;4929523;29;20032;-87
2022/09/17 11:59:01;;;;;;;0.00;0.00;;;14.20;99.90;;;;;;4929695;29;20043;-89
2022/09/17 12:01:32;;;;;;;0.00;0.00;;;14.20;99.90;;;;;;4929285;29;20040;-89
2022/09/17 12:04:43;;;;;;;0.00;0.00;;;14.20;99.90;;;;;;4934402;29;20051;-88
2022/09/17 12:07:15;;;;;;;0.00;0.00;;;14.20;99.90;;;;;;4949547;29;20027;-87
2022/09/17 12:09:43;;;;;;;0.00;0.00;;;14.20;99.90;;;;;;4931577;29;20040;-88
2022/09/17 12:12:23;;;;;;;0.00;0.00;;;14.20;99.90;;;;;;4932651;29;20031;-87
2022/09/17 12:15:02;;;;;;;0.00;0.00;;;14.20;99.90;;;;;;4947824;29;20030;-88
2022/09/17 12:17:37;;;;;;;0.00;0.00;;;14.20;99.90;;;;;;4932411;29;20457;-88
2022/09/17 12:20:17;;;;;;;0.00;0.00;;;14.20;99.90;;;;;;4932418;29;20028;-87
2022/09/17 12:22:47;;;;;;;0.00;0.00;;;14.10;99.90;;;;;;4929301;29;20032;-89
2022/09/17 12:25:13;;;;;;;0.00;0.00;;;14.10;99.90;;;;;;4912922;29;20020;-89
2022/09/17 12:27:55;;;;;;;0.00;0.00;;;14.00;99.90;;;;;;4913184;29;20036;-90
2022/09/17 12:30:31;;;;;;;0.00;0.00;;;14.00;99.90;;;;;;4913554;29;20052;-89
2022/09/17 12:33:12;;;;;;;0.00;0.00;;;14.00;99.90;;;;;;4929195;29;20119;-89
2022/09/17 12:36:02;;;;;;;0.00;0.00;;;13.90;99.90;;;;;;4915336;29;20046;-88
2022/09/17 12:39:10;;;;;;;0.00;0.00;;;13.90;99.90;;;;;;4944958;29;20122;-89
2022/09/17 12:42:01;;;;;;;0.00;0.00;;;14.00;99.90;;;;;;4939466;29;20044;-88
2022/09/17 12:44:54;;;;;;;1.65;1.55;;;14.00;99.90;;;;;;4928883;29;20032;-88
2022/09/17 12:48:00;;;;;;;0.00;0.00;;;14.10;99.90;;;;;;4945173;29;20040;-88
2022/09/17 12:50:44;;;;;;;2.05;1.92;;;14.20;99.90;;;;;;4935299;29;20074;-89
2022/09/17 12:53:24;;;;;;;0.00;0.00;;;14.30;99.90;;;;;;4932489;29;20095;-89
2022/09/17 12:55:58;;;;;;;0.00;0.00;;;14.40;99.90;;;;;;4934266;29;20027;-88
2022/09/17 12:59:21;;;;;;;0.00;0.00;;;14.60;99.90;;;;;;4948306;29;20035;-89
2022/09/17 13:02:21;;;;;;;0.00;0.00;;;14.70;99.90;;;;;;4859787;29;20033;-89
2022/09/17 13:05:07;;;;;;;0.08;0.08;;;14.70;99.90;;;;;;4890238;29;20089;-89
2022/09/17 13:07:52;;;;;;;0.57;0.57;;;14.70;99.90;;;;;;4922834;29;20040;-88
2022/09/17 13:10:53;;;;;;;0.00;0.00;;;14.80;99.90;;;;;;4947335;29;20039;-89
2022/09/17 13:13:37;;;;;;;0.00;0.00;;;14.80;99.90;;;;;;4931450;29;20035;-88
2022/09/17 13:16:44;;;;;;;0.00;0.00;;;14.90;99.90;;;;;;4947589;29;20054;-90
2022/09/17 13:19:31;;;;;;;0.20;0.20;;;14.90;99.90;;;;;;4947413;29;20108;-90
2022/09/17 13:22:05;;;;;;;0.00;0.00;;;14.90;99.90;;;;;;4933477;29;20028;-90
2022/09/17 13:24:33;;;;;;;0.00;0.00;;;14.90;99.90;;;;;;4951141;29;20040;-90
2022/09/17 13:27:01;;;;;;;0.00;0.00;;;14.90;99.90;;;;;;4917552;29;20027;-89